Weather observations for the past three days for
Ashtabula - Northeast Ohio Regional Airport
Imperial (Metric)
Date Time (edt) Wind (mph) Vis. (mi.) Weather Sky Cond. Temperature (ºF) Relative Humidity Wind Chill (°F) Heat Index (°F) Pressure Precipitation (in)
Air Dwpt 6 hour altimeter (in) sea level (mb) 1 hr 3 hr 6 hr
Max. Min.
31 18:53 NE 3 10.00 Fair CLR 75.9 71.1 85% 76 30.03 1016.4
31 17:53 W 5 10.00 A Few Clouds FEW110 79 70 74% 82 30.03 1016.3
31 16:53 W 3 10.00 Fair CLR 80.1 70 71% 83 30.06 1017.1
31 15:53 W 6 10.00 Light Rain BKN110 78.1 66.9 69% 80 30.06 1017.3
31 14:53 W 5 10.00 A Few Clouds FEW075 82 68 63% 85 30.07 1017.6
31 13:53 SW 5 10.00 Mostly Cloudy BKN100 BKN110 82 71.1 82 66.9 69% 86 30.08 1017.8
31 12:53 SW 7 10.00 Overcast OVC085 79 69.1 72% 82 30.08 1017.9
31 11:53 SW 7 10.00 Fair CLR 80.1 69.1 69% 83 30.09 1018.2
31 10:53 SW 9 10.00 A Few Clouds FEW085 77 68 74% 79 30.09 1018.5
31 09:53 S 8 10.00 Partly Cloudy SCT085 73 66.9 81% 30.08 1018.0
31 08:53 S 6 10.00 Mostly Cloudy FEW050 SCT060 BKN090 69.1 64.9 87% 30.1 1018.8
31 07:53 S 7 10.00 A Few Clouds FEW060 66.9 64 66.9 66 91% 30.09 1018.6
31 06:53 S 5 10.00 A Few Clouds FEW070 66 64 93% 30.09 1018.5
31 05:53 S 6 10.00 Overcast OVC070 66 63 90% 30.09 1018.4
31 04:53 S 3 10.00 Overcast OVC060 66 64 93% 30.08 1018.1
31 03:53 S 3 10.00 Overcast OVC060 66.9 64 91% 30.08 1018.0
31 02:53 SE 6 10.00 Overcast OVC060 66.9 64 91% 30.09 1018.3
31 01:53 SE 7 10.00 Overcast OVC070 66.9 64 69.1 66 91% 30.09 1018.4 0.08
31 00:53 SE 9 10.00 Overcast OVC075 66.9 66 97% 30.11 1019.1
30 23:53 SE 6 3.00 Light Rain Fog/Mist FEW045 BKN080 OVC090 66 66 100% 30.13 1019.9 0.08
30 22:53 SE 6 10.00 Overcast OVC100 66.9 66 97% 30.12 1019.6
30 21:53 E 3 8.00 Light Rain OVC100 66.9 66 97% 30.13 1019.9
30 20:53 E 3 6.00 Fog/Mist FEW046 BKN070 OVC080 68 66.9 96% 30.15 1020.5
30 19:53 Calm 5.00 Light Rain Fog/Mist FEW029 SCT070 BKN090 69.1 68 73 69.1 96% 30.13 1019.7
30 18:53 Calm 8.00 Light Rain BKN100 70 66.9 90% 30.1 1018.7
30 17:53 S 3 10.00 Light Rain SCT110 72 66 82% 30.1 1018.8
30 16:53 SE 5 10.00 A Few Clouds FEW120 73 64.9 76% 30.1 1019.0
30 15:53 S 3 10.00 Overcast OVC050 73 66 79% 30.11 1019.2
30 14:53 SW 7 10.00 Overcast OVC044 71.1 64.9 81% 30.15 1020.3
30 13:53 W 7 10.00 Overcast BKN055 BKN070 OVC100 72 64 72 64.9 76% 30.16 1020.8
30 12:53 W 3 9.00 Light Rain FEW070 SCT085 OVC110 69.1 66 90% 30.16 1021.0
30 11:53 SW 5 10.00 Light Rain BKN110 69.1 64.9 87% 30.17 1021.1
30 10:53 Calm 10.00 Overcast FEW050 BKN090 OVC110 68 63 84% 30.15 1020.6
30 09:53 Calm 10.00 Light Rain FEW055 BKN090 OVC110 66.9 61 81% 30.14 1020.3
30 08:53 Calm 10.00 Light Rain FEW080 OVC095 66 59 78% 30.13 1020.0
30 07:53 Calm 10.00 A Few Clouds FEW110 64.9 59 64.9 63 81% 30.12 1019.7
30 06:53 S 5 10.00 Overcast OVC095 64 57.9 81% 30.12 1019.6
30 05:53 S 3 10.00 Overcast OVC110 64 57.9 81% 30.13 1019.7
30 04:53 S 5 10.00 Partly Cloudy SCT110 64 57.9 81% 30.13 1019.8
30 03:53 S 3 10.00 Overcast OVC110 64 59 84% 30.14 1020.0
30 02:53 Calm 10.00 A Few Clouds FEW120 64 57.9 81% 30.15 1020.3
30 01:53 S 3 10.00 Fair CLR 64 57.9 66.9 61 81% 30.15 1020.5
30 00:53 S 5 10.00 Fair CLR 64 57.9 81% 30.15 1020.5
29 23:53 Calm 10.00 Fair CLR 64 57.9 81% 30.14 1020.3
29 22:53 SE 3 10.00 Fair CLR 64 60.1 87% 30.14 1020.2
29 21:53 Calm 10.00 Fair CLR 63 61 93% 30.15 1020.7
29 20:53 Calm 10.00 Fair CLR 64.9 62.1 90% 30.15 1020.6
29 19:53 Calm 10.00 Fair CLR 66.9 62.1 80.1 66.9 84% 30.14 1020.6
29 18:53 Calm 10.00 Fair CLR 73 61 66% 30.15 1020.9
29 17:53 S 5 10.00 Fair CLR 75.9 55 48% 78 30.17 1021.1
29 16:53 S 9 10.00 Fair CLR 78.1 53.1 42% 79 30.17 1021.3
29 15:53 S 6 10.00 Fair CLR 79 52 39% 79 30.18 1021.6
29 14:53 S 8 10.00 Fair CLR 79 53.1 41% 79 30.2 1022.2
29 13:53 SW 8 10.00 Fair CLR 78.1 54 78.1 55 43% 79 30.22 1022.9
29 12:53 S 8 10.00 Fair CLR 75.9 52 43% 78 30.24 1023.7
29 11:53 Calm 10.00 Fair CLR 73.9 55.9 54% 30.25 1023.8
29 10:53 S 7 10.00 Fair CLR 71.1 54 55% 30.26 1024.4
29 08:53 S 6 10.00 Fair CLR 60.1 53.1 78% 30.25 1024.1
29 07:53 S 7 10.00 Fair CLR 55 52 55 51.1 90% 30.24 1023.9
29 06:53 Calm 10.00 Fair CLR 52 50 93% 30.23 1023.4
29 05:53 SE 3 10.00 Fair CLR 53.1 51.1 93% 30.21 1022.9
29 04:53 Calm 10.00 Fair CLR 54 51.1 90% 30.21 1022.9
29 03:53 Calm 10.00 Fair CLR 54 52 93% 30.21 1022.7
29 02:53 Calm 10.00 Fair CLR 52 51.1 97% 30.2 1022.5
29 01:53 Calm 10.00 Fair CLR 53.1 52 63 52 96% 30.21 1022.8
29 00:53 Calm 10.00 Fair CLR 53.1 52 96% 30.22 1023.1
28 23:53 Calm 10.00 Fair CLR 53.1 53.1 100% 30.21 1022.6
28 22:53 Calm 10.00 Fair CLR 55 54 96% 30.21 1022.7
28 21:53 Calm 10.00 Fair CLR 57 55 93% 30.2 1022.5
28 20:53 Calm 10.00 Fair CLR 57.9 55.9 93% 30.18 1021.8
28 19:53 Calm 10.00 Fair CLR 63 57 73.9 63 81% 30.17 1021.4
Date Time (edt) Wind (mph) Vis. (mi.) Weather Sky Cond. Air Dwpt Max. Min. Relative Humidity Wind Chill (°F) Heat Index (°F) altimeter (in) sea level (mb) 1 hr 3 hr 6 hr
6 hour
Temperature (ºF) Pressure Precipitation (in)